Flight Track Log - Related Links

Times and Time Zones

All times are in EDT time to prevent confusion due to time zone crossing. See the N777NC flight status page for this flight to view local times or setup timezone preferences in your user account.

Time Position Orientation Groundspeed Altitude Reporting Facility
EDT Latitude Longitude Course Direction KTS MPH feet Rate Location/Type
Tue 06:14:09 PM 33.6500 -84.3833 220° Southwest 186 214 2,100  Level Atlanta TRACON
Tue 06:15:03 PM 33.6667 -84.3167 73° East 259 298 3,400 2,000 Climbing Atlanta TRACON
Tue 06:16:03 PM 33.7333 -84.2833 23° Northeast 280 322 5,900 2,526 Climbing Atlanta TRACON
Tue 06:16:57 PM 33.8000 -84.3167 337° Northwest 284 327 8,200 2,025 Climbing Atlanta TRACON
Tue 06:17:00 PM 33.5494 -84.8990 260° West  Level FlightAware Approximate
Tue 06:18:00 PM 33.5312 -85.0201 260° West  Level FlightAware Approximate
Tue 06:18:40 PM 33.7956 -84.4639 268° West 290 334 11,200  Level Atlanta Center
Tue 06:19:00 PM 33.5007 -85.1327 220° Southwest  Level FlightAware Approximate
Tue 06:19:40 PM 33.7722 -84.5661 255° West 307 353 12,400  Level Atlanta Center
Tue 06:20:40 PM 33.7300 -84.6658 243° Southwest 328 377 14,700 2,000 Climbing Atlanta Center
Tue 06:21:40 PM 33.6858 -84.7578 240° Southwest 328 377 16,400 1,700 Climbing Atlanta Center
Tue 06:22:40 PM 33.6308 -84.8697 239° Southwest 342 394 18,100 1,600 Climbing Atlanta Center
Tue 06:23:40 PM 33.5861 -84.9714 242° Southwest 349 402 19,600 1,500 Climbing Atlanta Center
Tue 06:24:40 PM 33.5414 -85.0756 243° Southwest 354 407 21,100 1,450 Climbing Atlanta Center
Tue 06:25:40 PM 33.4947 -85.1822 242° Southwest 360 414 22,500 1,300 Climbing Atlanta Center
Tue 06:26:40 PM 33.4478 -85.2886 242° Southwest 366 421 23,700 1,250 Climbing Atlanta Center
Tue 06:27:40 PM 33.3819 -85.3772 228° Southwest 361 415 25,000 1,100 Climbing Atlanta Center
Tue 06:28:40 PM 33.2978 -85.4456 214° Southwest 360 414 25,900 950 Climbing Atlanta Center
Tue 06:29:40 PM 33.2242 -85.5039 214° Southwest 365 420 26,900 900 Climbing Atlanta Center
Tue 06:30:40 PM 33.1397 -85.5744 215° Southwest 370 426 27,700 550 Climbing Atlanta Center
Tue 06:31:40 PM 33.0511 -85.6422 213° Southwest 375 432 28,000 150 Climbing Atlanta Center
Tue 06:32:40 PM 32.9625 -85.7247 218° Southwest 393 452 28,000  Level Atlanta Center
Tue 06:33:40 PM 32.8817 -85.8247 226° Southwest 406 467 28,000  Level Atlanta Center
Tue 06:34:40 PM 32.7967 -85.9242 225° Southwest 417 480 28,000  Level Atlanta Center
Tue 06:35:40 PM 32.7158 -86.0214 225° Southwest 422 486 28,000  Level Atlanta Center
Tue 06:36:40 PM 32.6283 -86.1328 227° Southwest 422 486 28,000  Level Atlanta Center
Tue 06:37:40 PM 32.5494 -86.2294 226° Southwest 422 486 28,000  Level Atlanta Center
Tue 06:38:40 PM 32.4683 -86.3283 226° Southwest 422 486 28,000  Level Atlanta Center
Tue 06:39:40 PM 32.3978 -86.4200 228° Southwest 423 487 28,000  Level Atlanta Center
Tue 06:40:40 PM 32.3208 -86.5214 228° Southwest 418 481 28,000  Level Atlanta Center
Tue 06:41:40 PM 32.2394 -86.6197 226° Southwest 418 481 28,000  Level Atlanta Center
Tue 06:42:40 PM 32.1475 -86.7225 223° Southwest 418 481 28,000  Level Atlanta Center
Tue 06:43:40 PM 32.0639 -86.8206 225° Southwest 418 481 28,000  Level Atlanta Center
Tue 06:44:40 PM 31.9783 -86.9108 222° Southwest 424 488 28,000  Level Atlanta Center
Tue 06:45:40 PM 31.8906 -87.0011 221° Southwest 424 488 28,000  Level Atlanta Center
Tue 06:46:40 PM 31.8028 -87.0911 221° Southwest 424 488 28,000  Level Atlanta Center
Tue 06:47:40 PM 31.7172 -87.1808 222° Southwest 424 488 28,000  Level Atlanta Center
Tue 06:49:10 PM 31.5992 -87.3183 225° Southwest 418 481 28,000  Level Houston Center
Tue 06:50:12 PM 31.5167 -87.4131 224° Southwest 415 478 28,000  Level Houston Center
Tue 06:51:14 PM 31.4336 -87.5092 225° Southwest 418 481 28,000  Level Houston Center
Tue 06:52:16 PM 31.3522 -87.6047 225° Southwest 414 476 28,000 -146 Level Houston Center
Tue 06:53:17 PM 31.2706 -87.7017 225° Southwest 417 480 27,700 -732 Descending Houston Center
Tue 06:54:19 PM 31.1839 -87.8042 225° Southwest 413 475 26,500 -1,161 Descending Houston Center
Tue 06:55:21 PM 31.1067 -87.8978 226° Southwest 400 460 25,300 -2,032 Descending Houston Center
Tue 06:56:23 PM 31.0214 -88.0011 226° Southwest 389 448 22,300 -2,806 Descending Houston Center
Tue 06:57:25 PM 30.9561 -88.1019 233° Southwest 384 442 19,500 -2,683 Descending Houston Center
Tue 06:58:26 PM 30.8900 -88.1972 231° Southwest 371 427 16,800 -2,683 Descending Houston Center
Tue 06:59:28 PM 30.8406 -88.2986 240° Southwest 360 414 14,000 -2,613 Descending Houston Center
Tue 07:00:30 PM 30.7994 -88.4008 245° Southwest 350 403 11,400 -1,452 Descending Houston Center
Tue 07:01:32 PM 30.7683 -88.5053 251° West 342 394 11,000 -195 Descending Houston Center
Tue 07:02:33 PM 30.7169 -88.5936 236° Southwest 333 383 11,000 -390 Level Houston Center
Tue 07:03:35 PM 30.6650 -88.6661 230° Southwest 299 344 10,200 -1,500 Descending Houston Center
Tue 07:04:37 PM 30.6056 -88.7497 230° Southwest 284 327 7,900 -1,935 Descending Houston Center
Tue 07:05:39 PM 30.5639 -88.8247 237° Southwest 278 320 6,200 -1,694 Descending Houston Center
Tue 07:06:41 PM 30.5269 -88.9006 241° Southwest 273 314 4,400 -1,707 Descending Houston Center
Tue 07:07:42 PM 30.4986 -88.9722 245° Southwest 258 297 2,700 -1,268 Descending Houston Center
Tue 07:08:44 PM 30.4983 -89.0419 270° West 226 260 1,800 -435 Descending Houston Center
Tue 07:09:46 PM 30.4936 -89.1025 265° West 200 230 1,800 -484 Level Houston Center
Tue 07:10:48 PM 30.4442 -89.1169 194° South 160 184 800 -823 Descending Houston Center
Tue 07:11:50 PM 30.4147 -89.0842 136° Southeast 148 170 100 -677 Descending Houston Center
Tue 07:13:00 PM 30.4000 -89.0667 235° Southwest  Level FlightAware Approximate
Tue 07:20:00 PM 30.4073 -89.0701 235° Southwest  Level Estimated
Tue 07:21:00 PM 30.4073 -89.0701 235° Southwest  Level Estimated

Login

Don't have an account? Register now (free) for customized features, flight alerts, and more!